This is the latest recevied weather packets stored in our database for station/object HP1COO-13. If no packets are shown the sender has not sent any weather packets the latest 10 day(s).
| Time | Temp. | Humidity | Pressure | Rain* | Wind** | Luminosity | Snow |
|---|---|---|---|---|---|---|---|
| 1777487061 | 27.22° C | 90% | 1005.3 hPa | 6.86 mm | - | - | - |
| 1777486428 | 27.78° C | 88% | 1005.9 hPa | 6.1 mm | - | - | - |
| 1777485162 | 27.78° C | 85% | 1005.9 hPa | 5.08 mm | - | - | - |
| 1777483896 | 31.11° C | 76% | 1006.5 hPa | 0 mm | - | - | - |
| 1777483263 | 33.33° C | 60% | 1006.4 hPa | 0 mm | - | - | - |
| 1777482630 | 33.33° C | 61% | 1006.6 hPa | 0 mm | - | - | - |
| 1777481997 | 32.78° C | 61% | 1006.6 hPa | 0 mm | - | - | - |
| 1777481364 | 32.78° C | 63% | 1006.8 hPa | 0 mm | - | - | - |
| 1777480731 | 33.33° C | 62% | 1007.1 hPa | 0 mm | - | - | - |
| 1777480099 | 32.78° C | 63% | 1007.2 hPa | 0 mm | - | - | - |
| 1777479465 | 32.78° C | 62% | 1007.2 hPa | 0 mm | - | - | - |
| 1777478832 | 33.33° C | 59% | 1007.4 hPa | 0 mm | - | - | - |
| 1777478199 | 32.78° C | 62% | 1007.3 hPa | 0 mm | - | - | - |
| 1777476933 | 32.22° C | 64% | 1007.7 hPa | 0 mm | - | - | - |
| 1777476300 | 32.22° C | 64% | 1007.9 hPa | 0 mm | - | - | - |
| 1777475667 | 32.22° C | 63% | 1007.9 hPa | 0 mm | - | - | - |
| 1777475034 | 32.78° C | 61% | 1007.7 hPa | 0 mm | - | - | - |
| 1777474401 | 32.22° C | 64% | 1007.9 hPa | 0 mm | - | - | - |
| 1777473768 | 31.67° C | 66% | 1008.1 hPa | 0 mm | - | - | - |
| 1777473135 | 31.67° C | 67% | 1008.1 hPa | 0 mm | - | - | - |
| 1777472502 | 31.67° C | 68% | 1008.1 hPa | 0 mm | - | - | - |
| 1777471869 | 31.11° C | 70% | 1008.2 hPa | 0 mm | - | - | - |
| 1777471236 | 31.67° C | 69% | 1008 hPa | 0 mm | - | - | - |
| 1777470603 | 31.11° C | 71% | 1008.1 hPa | 0 mm | - | - | - |
| 1777469970 | 30.56° C | 73% | 1008.1 hPa | 0 mm | - | - | - |
* Rain latest hour (hover to see other rain measurements)
** Current wind speed in m/s (hover to see current wind gust speed)